sensor_id;sensor_type;location;lat;lon;timestamp;P1;durP1;ratioP1;P2;durP2;ratioP2
70073;SDS011;57445;51.058;3.698;2022-07-21T00:01:25;7.35;;;3.90;;
70073;SDS011;57445;51.058;3.698;2022-07-21T00:03:52;7.10;;;3.67;;
70073;SDS011;57445;51.058;3.698;2022-07-21T00:06:19;6.45;;;3.80;;
70073;SDS011;57445;51.058;3.698;2022-07-21T00:08:50;5.82;;;3.92;;
70073;SDS011;57445;51.058;3.698;2022-07-21T00:11:17;8.77;;;4.05;;
70073;SDS011;57445;51.058;3.698;2022-07-21T00:13:44;5.47;;;3.20;;
70073;SDS011;57445;51.058;3.698;2022-07-21T00:16:12;6.60;;;3.88;;
70073;SDS011;57445;51.058;3.698;2022-07-21T00:18:39;8.40;;;4.63;;
70073;SDS011;57445;51.058;3.698;2022-07-21T00:21:07;9.43;;;4.22;;
70073;SDS011;57445;51.058;3.698;2022-07-21T00:23:34;8.65;;;4.38;;
70073;SDS011;57445;51.058;3.698;2022-07-21T00:26:00;8.75;;;4.63;;
70073;SDS011;57445;51.058;3.698;2022-07-21T00:28:27;9.07;;;4.78;;
70073;SDS011;57445;51.058;3.698;2022-07-21T00:30:55;9.25;;;5.00;;
70073;SDS011;57445;51.058;3.698;2022-07-21T00:33:23;10.20;;;5.20;;
70073;SDS011;57445;51.058;3.698;2022-07-21T00:35:50;9.07;;;4.88;;
70073;SDS011;57445;51.058;3.698;2022-07-21T00:38:17;9.23;;;4.93;;
70073;SDS011;57445;51.058;3.698;2022-07-21T00:40:44;9.68;;;5.13;;
70073;SDS011;57445;51.058;3.698;2022-07-21T00:43:11;12.00;;;5.78;;
70073;SDS011;57445;51.058;3.698;2022-07-21T00:45:39;9.77;;;5.43;;
70073;SDS011;57445;51.058;3.698;2022-07-21T00:48:06;10.07;;;5.07;;
70073;SDS011;57445;51.058;3.698;2022-07-21T00:50:34;10.20;;;5.57;;
70073;SDS011;57445;51.058;3.698;2022-07-21T00:53:01;12.32;;;5.20;;
70073;SDS011;57445;51.058;3.698;2022-07-21T00:55:28;10.57;;;5.07;;
70073;SDS011;57445;51.058;3.698;2022-07-21T00:57:55;12.32;;;5.07;;
70073;SDS011;57445;51.058;3.698;2022-07-21T01:00:24;9.23;;;4.85;;
70073;SDS011;57445;51.058;3.698;2022-07-21T01:02:54;9.27;;;5.25;;
70073;SDS011;57445;51.058;3.698;2022-07-21T01:05:21;9.85;;;5.47;;
70073;SDS011;57445;51.058;3.698;2022-07-21T01:07:50;7.13;;;4.45;;
70073;SDS011;57445;51.058;3.698;2022-07-21T01:10:19;8.40;;;4.97;;
70073;SDS011;57445;51.058;3.698;2022-07-21T01:12:48;7.65;;;4.75;;
70073;SDS011;57445;51.058;3.698;2022-07-21T01:15:16;9.95;;;4.65;;
70073;SDS011;57445;51.058;3.698;2022-07-21T01:17:44;13.15;;;5.40;;
70073;SDS011;57445;51.058;3.698;2022-07-21T01:20:12;9.93;;;4.82;;
70073;SDS011;57445;51.058;3.698;2022-07-21T01:22:44;8.75;;;5.03;;
70073;SDS011;57445;51.058;3.698;2022-07-21T01:25:12;9.15;;;5.18;;
70073;SDS011;57445;51.058;3.698;2022-07-21T01:27:39;10.50;;;5.80;;
70073;SDS011;57445;51.058;3.698;2022-07-21T01:30:07;10.15;;;5.40;;
70073;SDS011;57445;51.058;3.698;2022-07-21T01:32:36;9.77;;;5.22;;
70073;SDS011;57445;51.058;3.698;2022-07-21T01:35:05;9.73;;;5.20;;
70073;SDS011;57445;51.058;3.698;2022-07-21T01:37:37;7.78;;;5.10;;
70073;SDS011;57445;51.058;3.698;2022-07-21T01:40:07;9.50;;;5.50;;
70073;SDS011;57445;51.058;3.698;2022-07-21T01:45:20;7.10;;;4.65;;
70073;SDS011;57445;51.058;3.698;2022-07-21T01:47:47;7.93;;;4.72;;
70073;SDS011;57445;51.058;3.698;2022-07-21T01:50:14;8.15;;;4.63;;
70073;SDS011;57445;51.058;3.698;2022-07-21T01:52:44;11.15;;;5.07;;
70073;SDS011;57445;51.058;3.698;2022-07-21T01:55:12;9.68;;;5.25;;
70073;SDS011;57445;51.058;3.698;2022-07-21T01:57:40;11.35;;;5.35;;
70073;SDS011;57445;51.058;3.698;2022-07-21T02:00:07;9.73;;;5.47;;
70073;SDS011;57445;51.058;3.698;2022-07-21T02:02:35;8.52;;;5.18;;
70073;SDS011;57445;51.058;3.698;2022-07-21T02:05:03;8.70;;;5.10;;
70073;SDS011;57445;51.058;3.698;2022-07-21T02:07:30;10.23;;;5.35;;
70073;SDS011;57445;51.058;3.698;2022-07-21T02:09:57;8.70;;;5.35;;
70073;SDS011;57445;51.058;3.698;2022-07-21T02:12:25;9.57;;;5.63;;
70073;SDS011;57445;51.058;3.698;2022-07-21T02:14:53;10.23;;;5.55;;
70073;SDS011;57445;51.058;3.698;2022-07-21T02:17:19;10.00;;;5.80;;
70073;SDS011;57445;51.058;3.698;2022-07-21T02:19:48;9.50;;;5.43;;
70073;SDS011;57445;51.058;3.698;2022-07-21T02:22:15;10.95;;;5.80;;
70073;SDS011;57445;51.058;3.698;2022-07-21T02:24:42;10.93;;;5.70;;
70073;SDS011;57445;51.058;3.698;2022-07-21T02:27:08;9.02;;;5.97;;
70073;SDS011;57445;51.058;3.698;2022-07-21T02:29:37;8.95;;;5.45;;
70073;SDS011;57445;51.058;3.698;2022-07-21T02:32:04;10.32;;;6.00;;
70073;SDS011;57445;51.058;3.698;2022-07-21T02:34:31;11.73;;;6.10;;
70073;SDS011;57445;51.058;3.698;2022-07-21T02:36:58;9.82;;;6.50;;
70073;SDS011;57445;51.058;3.698;2022-07-21T02:39:25;11.02;;;6.03;;
70073;SDS011;57445;51.058;3.698;2022-07-21T02:41:53;9.98;;;6.97;;
70073;SDS011;57445;51.058;3.698;2022-07-21T02:44:20;14.20;;;7.32;;
70073;SDS011;57445;51.058;3.698;2022-07-21T02:46:49;10.43;;;7.20;;
70073;SDS011;57445;51.058;3.698;2022-07-21T02:49:16;12.18;;;7.05;;
70073;SDS011;57445;51.058;3.698;2022-07-21T02:51:43;12.75;;;6.75;;
70073;SDS011;57445;51.058;3.698;2022-07-21T02:54:10;11.73;;;7.03;;
70073;SDS011;57445;51.058;3.698;2022-07-21T02:56:37;12.57;;;7.28;;
70073;SDS011;57445;51.058;3.698;2022-07-21T02:59:04;12.85;;;6.82;;
70073;SDS011;57445;51.058;3.698;2022-07-21T03:01:31;12.38;;;7.00;;
70073;SDS011;57445;51.058;3.698;2022-07-21T03:04:00;10.18;;;7.22;;
70073;SDS011;57445;51.058;3.698;2022-07-21T03:06:27;11.57;;;7.68;;
70073;SDS011;57445;51.058;3.698;2022-07-21T03:08:55;12.00;;;7.82;;
70073;SDS011;57445;51.058;3.698;2022-07-21T03:11:21;14.18;;;9.38;;
70073;SDS011;57445;51.058;3.698;2022-07-21T03:13:48;17.88;;;10.27;;
70073;SDS011;57445;51.058;3.698;2022-07-21T03:16:15;15.55;;;10.30;;
70073;SDS011;57445;51.058;3.698;2022-07-21T03:18:42;17.65;;;11.73;;
70073;SDS011;57445;51.058;3.698;2022-07-21T03:21:11;16.50;;;11.25;;
70073;SDS011;57445;51.058;3.698;2022-07-21T03:23:38;16.98;;;12.50;;
70073;SDS011;57445;51.058;3.698;2022-07-21T03:26:05;15.20;;;11.65;;
70073;SDS011;57445;51.058;3.698;2022-07-21T03:28:31;19.10;;;12.55;;
70073;SDS011;57445;51.058;3.698;2022-07-21T03:30:58;21.20;;;13.48;;
70073;SDS011;57445;51.058;3.698;2022-07-21T03:33:26;21.65;;;14.85;;
70073;SDS011;57445;51.058;3.698;2022-07-21T03:35:52;20.77;;;14.70;;
70073;SDS011;57445;51.058;3.698;2022-07-21T03:38:22;21.38;;;15.10;;
70073;SDS011;57445;51.058;3.698;2022-07-21T03:40:49;20.15;;;15.40;;
70073;SDS011;57445;51.058;3.698;2022-07-21T03:43:17;21.80;;;15.77;;
70073;SDS011;57445;51.058;3.698;2022-07-21T03:45:45;21.55;;;15.93;;
70073;SDS011;57445;51.058;3.698;2022-07-21T03:48:11;22.33;;;16.60;;
70073;SDS011;57445;51.058;3.698;2022-07-21T03:50:39;21.25;;;17.30;;
70073;SDS011;57445;51.058;3.698;2022-07-21T03:53:07;24.48;;;16.95;;
70073;SDS011;57445;51.058;3.698;2022-07-21T03:55:36;22.70;;;17.13;;
70073;SDS011;57445;51.058;3.698;2022-07-21T03:58:04;23.48;;;17.13;;
70073;SDS011;57445;51.058;3.698;2022-07-21T04:00:33;26.33;;;18.02;;
70073;SDS011;57445;51.058;3.698;2022-07-21T04:03:01;25.48;;;17.63;;
70073;SDS011;57445;51.058;3.698;2022-07-21T04:05:29;24.23;;;18.27;;
70073;SDS011;57445;51.058;3.698;2022-07-21T04:07:57;23.42;;;18.60;;
70073;SDS011;57445;51.058;3.698;2022-07-21T04:10:26;26.20;;;19.17;;
70073;SDS011;57445;51.058;3.698;2022-07-21T04:12:56;22.17;;;18.80;;
70073;SDS011;57445;51.058;3.698;2022-07-21T04:15:24;27.20;;;19.70;;
70073;SDS011;57445;51.058;3.698;2022-07-21T04:17:54;26.67;;;20.35;;
70073;SDS011;57445;51.058;3.698;2022-07-21T04:20:21;27.90;;;21.20;;
70073;SDS011;57445;51.058;3.698;2022-07-21T04:22:48;24.58;;;19.55;;
70073;SDS011;57445;51.058;3.698;2022-07-21T04:25:16;25.42;;;19.92;;
70073;SDS011;57445;51.058;3.698;2022-07-21T04:27:44;26.33;;;21.48;;
70073;SDS011;57445;51.058;3.698;2022-07-21T04:30:14;25.17;;;19.90;;
70073;SDS011;57445;51.058;3.698;2022-07-21T04:32:43;25.42;;;19.63;;
70073;SDS011;57445;51.058;3.698;2022-07-21T04:35:12;24.90;;;20.05;;
70073;SDS011;57445;51.058;3.698;2022-07-21T04:37:39;25.00;;;20.50;;
70073;SDS011;57445;51.058;3.698;2022-07-21T04:40:08;25.88;;;20.52;;
70073;SDS011;57445;51.058;3.698;2022-07-21T04:42:36;27.08;;;21.65;;
70073;SDS011;57445;51.058;3.698;2022-07-21T04:45:03;27.38;;;20.58;;
70073;SDS011;57445;51.058;3.698;2022-07-21T04:47:34;31.35;;;22.27;;
70073;SDS011;57445;51.058;3.698;2022-07-21T04:50:08;25.17;;;21.17;;
70073;SDS011;57445;51.058;3.698;2022-07-21T04:52:35;29.30;;;21.45;;
70073;SDS011;57445;51.058;3.698;2022-07-21T04:55:02;28.35;;;21.80;;
70073;SDS011;57445;51.058;3.698;2022-07-21T04:57:30;27.60;;;21.42;;
70073;SDS011;57445;51.058;3.698;2022-07-21T04:59:57;29.33;;;21.33;;
70073;SDS011;57445;51.058;3.698;2022-07-21T05:02:27;26.67;;;21.52;;
70073;SDS011;57445;51.058;3.698;2022-07-21T05:04:55;28.50;;;22.35;;
70073;SDS011;57445;51.058;3.698;2022-07-21T05:07:22;28.02;;;22.15;;
70073;SDS011;57445;51.058;3.698;2022-07-21T05:09:49;28.52;;;22.25;;
70073;SDS011;57445;51.058;3.698;2022-07-21T05:12:15;26.30;;;22.17;;
70073;SDS011;57445;51.058;3.698;2022-07-21T05:14:42;29.15;;;23.02;;
70073;SDS011;57445;51.058;3.698;2022-07-21T05:17:10;29.00;;;22.15;;
70073;SDS011;57445;51.058;3.698;2022-07-21T05:19:36;30.73;;;23.95;;
70073;SDS011;57445;51.058;3.698;2022-07-21T05:22:05;31.92;;;24.05;;
70073;SDS011;57445;51.058;3.698;2022-07-21T05:24:34;28.48;;;23.95;;
70073;SDS011;57445;51.058;3.698;2022-07-21T05:27:01;35.55;;;23.98;;
70073;SDS011;57445;51.058;3.698;2022-07-21T05:29:28;33.67;;;24.77;;
70073;SDS011;57445;51.058;3.698;2022-07-21T05:31:55;38.67;;;26.30;;
70073;SDS011;57445;51.058;3.698;2022-07-21T05:34:28;40.28;;;27.77;;
70073;SDS011;57445;51.058;3.698;2022-07-21T05:36:55;38.80;;;26.23;;
70073;SDS011;57445;51.058;3.698;2022-07-21T05:39:24;42.22;;;29.63;;
70073;SDS011;57445;51.058;3.698;2022-07-21T05:41:51;45.47;;;29.65;;
70073;SDS011;57445;51.058;3.698;2022-07-21T05:44:18;46.75;;;30.92;;
70073;SDS011;57445;51.058;3.698;2022-07-21T05:46:45;49.22;;;30.88;;
70073;SDS011;57445;51.058;3.698;2022-07-21T05:49:12;44.53;;;30.15;;
70073;SDS011;57445;51.058;3.698;2022-07-21T05:51:39;50.33;;;30.05;;
70073;SDS011;57445;51.058;3.698;2022-07-21T05:54:06;46.00;;;31.63;;
70073;SDS011;57445;51.058;3.698;2022-07-21T05:56:34;51.05;;;32.28;;
70073;SDS011;57445;51.058;3.698;2022-07-21T05:59:01;48.92;;;31.60;;
70073;SDS011;57445;51.058;3.698;2022-07-21T06:01:28;47.83;;;31.30;;
70073;SDS011;57445;51.058;3.698;2022-07-21T06:03:55;45.40;;;31.08;;
70073;SDS011;57445;51.058;3.698;2022-07-21T06:06:22;44.22;;;31.13;;
70073;SDS011;57445;51.058;3.698;2022-07-21T06:08:49;51.30;;;32.30;;
70073;SDS011;57445;51.058;3.698;2022-07-21T06:11:21;49.38;;;30.58;;
70073;SDS011;57445;51.058;3.698;2022-07-21T06:13:49;41.28;;;28.80;;
70073;SDS011;57445;51.058;3.698;2022-07-21T06:16:16;44.65;;;29.45;;
70073;SDS011;57445;51.058;3.698;2022-07-21T06:18:43;40.15;;;27.85;;
70073;SDS011;57445;51.058;3.698;2022-07-21T06:21:10;39.85;;;27.52;;
70073;SDS011;57445;51.058;3.698;2022-07-21T06:23:37;39.30;;;27.27;;
70073;SDS011;57445;51.058;3.698;2022-07-21T06:26:04;41.08;;;28.02;;
70073;SDS011;57445;51.058;3.698;2022-07-21T06:28:31;41.15;;;27.88;;
70073;SDS011;57445;51.058;3.698;2022-07-21T06:31:00;40.65;;;25.13;;
70073;SDS011;57445;51.058;3.698;2022-07-21T06:33:27;38.05;;;25.35;;
70073;SDS011;57445;51.058;3.698;2022-07-21T06:35:54;40.47;;;26.20;;
70073;SDS011;57445;51.058;3.698;2022-07-21T06:38:21;38.42;;;25.08;;
70073;SDS011;57445;51.058;3.698;2022-07-21T06:40:48;36.15;;;25.52;;
70073;SDS011;57445;51.058;3.698;2022-07-21T06:43:15;33.97;;;23.67;;
70073;SDS011;57445;51.058;3.698;2022-07-21T06:45:42;32.47;;;22.10;;
70073;SDS011;57445;51.058;3.698;2022-07-21T06:48:11;30.80;;;20.75;;
70073;SDS011;57445;51.058;3.698;2022-07-21T06:50:38;33.85;;;21.30;;
70073;SDS011;57445;51.058;3.698;2022-07-21T06:53:05;28.60;;;20.75;;
70073;SDS011;57445;51.058;3.698;2022-07-21T06:55:32;27.55;;;19.08;;
70073;SDS011;57445;51.058;3.698;2022-07-21T06:58:10;28.23;;;18.73;;
70073;SDS011;57445;51.058;3.698;2022-07-21T07:00:38;26.30;;;17.52;;
70073;SDS011;57445;51.058;3.698;2022-07-21T07:03:05;23.13;;;16.38;;
70073;SDS011;57445;51.058;3.698;2022-07-21T07:05:34;25.98;;;16.95;;
70073;SDS011;57445;51.058;3.698;2022-07-21T07:08:01;30.60;;;15.90;;
70073;SDS011;57445;51.058;3.698;2022-07-21T07:10:28;25.63;;;14.70;;
70073;SDS011;57445;51.058;3.698;2022-07-21T07:12:55;21.10;;;13.77;;
70073;SDS011;57445;51.058;3.698;2022-07-21T07:15:23;20.52;;;13.50;;
70073;SDS011;57445;51.058;3.698;2022-07-21T07:17:50;19.52;;;12.77;;
70073;SDS011;57445;51.058;3.698;2022-07-21T07:20:18;22.23;;;12.68;;
70073;SDS011;57445;51.058;3.698;2022-07-21T07:22:50;19.48;;;12.02;;
70073;SDS011;57445;51.058;3.698;2022-07-21T07:25:18;16.95;;;11.50;;
70073;SDS011;57445;51.058;3.698;2022-07-21T07:27:45;18.02;;;10.85;;
70073;SDS011;57445;51.058;3.698;2022-07-21T07:30:16;18.73;;;11.00;;
70073;SDS011;57445;51.058;3.698;2022-07-21T07:32:44;18.40;;;10.55;;
70073;SDS011;57445;51.058;3.698;2022-07-21T07:35:12;19.98;;;10.90;;
70073;SDS011;57445;51.058;3.698;2022-07-21T07:37:41;16.90;;;10.52;;
70073;SDS011;57445;51.058;3.698;2022-07-21T07:40:12;14.65;;;9.60;;
70073;SDS011;57445;51.058;3.698;2022-07-21T07:42:41;16.88;;;10.52;;
70073;SDS011;57445;51.058;3.698;2022-07-21T07:45:08;20.27;;;10.75;;
70073;SDS011;57445;51.058;3.698;2022-07-21T07:47:36;16.80;;;10.80;;
70073;SDS011;57445;51.058;3.698;2022-07-21T07:50:04;16.52;;;10.57;;
70073;SDS011;57445;51.058;3.698;2022-07-21T07:52:33;17.27;;;9.95;;
70073;SDS011;57445;51.058;3.698;2022-07-21T07:55:04;15.75;;;9.40;;
70073;SDS011;57445;51.058;3.698;2022-07-21T07:57:36;15.25;;;10.05;;
70073;SDS011;57445;51.058;3.698;2022-07-21T08:00:05;14.05;;;9.60;;
70073;SDS011;57445;51.058;3.698;2022-07-21T08:02:35;18.10;;;9.85;;
70073;SDS011;57445;51.058;3.698;2022-07-21T08:05:02;15.23;;;9.73;;
70073;SDS011;57445;51.058;3.698;2022-07-21T08:07:30;16.95;;;9.82;;
70073;SDS011;57445;51.058;3.698;2022-07-21T08:09:57;16.23;;;9.60;;
70073;SDS011;57445;51.058;3.698;2022-07-21T08:12:23;21.45;;;9.77;;
70073;SDS011;57445;51.058;3.698;2022-07-21T08:14:53;14.65;;;9.85;;
70073;SDS011;57445;51.058;3.698;2022-07-21T08:17:20;16.58;;;8.60;;
70073;SDS011;57445;51.058;3.698;2022-07-21T08:19:47;15.68;;;8.60;;
70073;SDS011;57445;51.058;3.698;2022-07-21T08:22:14;10.93;;;7.53;;
70073;SDS011;57445;51.058;3.698;2022-07-21T08:24:41;10.25;;;7.25;;
70073;SDS011;57445;51.058;3.698;2022-07-21T08:27:09;10.85;;;7.40;;
70073;SDS011;57445;51.058;3.698;2022-07-21T08:29:35;13.75;;;7.60;;
70073;SDS011;57445;51.058;3.698;2022-07-21T08:32:04;12.65;;;6.95;;
70073;SDS011;57445;51.058;3.698;2022-07-21T08:34:31;11.57;;;7.68;;
70073;SDS011;57445;51.058;3.698;2022-07-21T08:36:58;14.55;;;8.02;;
70073;SDS011;57445;51.058;3.698;2022-07-21T08:39:25;13.98;;;8.38;;
70073;SDS011;57445;51.058;3.698;2022-07-21T08:41:52;12.60;;;7.55;;
70073;SDS011;57445;51.058;3.698;2022-07-21T08:44:20;15.63;;;8.23;;
70073;SDS011;57445;51.058;3.698;2022-07-21T08:46:48;12.20;;;7.82;;
70073;SDS011;57445;51.058;3.698;2022-07-21T08:49:17;14.60;;;7.78;;
70073;SDS011;57445;51.058;3.698;2022-07-21T08:51:47;15.25;;;8.23;;
70073;SDS011;57445;51.058;3.698;2022-07-21T08:54:14;14.02;;;7.47;;
70073;SDS011;57445;51.058;3.698;2022-07-21T08:56:41;15.38;;;7.72;;
70073;SDS011;57445;51.058;3.698;2022-07-21T08:59:08;14.18;;;7.80;;
70073;SDS011;57445;51.058;3.698;2022-07-21T09:01:34;12.98;;;7.25;;
70073;SDS011;57445;51.058;3.698;2022-07-21T09:06:53;13.05;;;7.18;;
70073;SDS011;57445;51.058;3.698;2022-07-21T09:09:22;13.20;;;7.47;;
70073;SDS011;57445;51.058;3.698;2022-07-21T09:11:51;15.82;;;7.80;;
70073;SDS011;57445;51.058;3.698;2022-07-21T09:14:19;15.00;;;7.50;;
70073;SDS011;57445;51.058;3.698;2022-07-21T09:16:48;13.52;;;6.90;;
70073;SDS011;57445;51.058;3.698;2022-07-21T09:19:19;16.55;;;7.30;;
70073;SDS011;57445;51.058;3.698;2022-07-21T09:21:50;14.25;;;7.45;;
70073;SDS011;57445;51.058;3.698;2022-07-21T09:24:21;13.77;;;7.60;;
70073;SDS011;57445;51.058;3.698;2022-07-21T09:26:58;14.43;;;7.00;;
70073;SDS011;57445;51.058;3.698;2022-07-21T09:29:33;12.25;;;7.20;;
70073;SDS011;57445;51.058;3.698;2022-07-21T09:32:11;16.33;;;6.68;;
70073;SDS011;57445;51.058;3.698;2022-07-21T09:34:40;13.05;;;6.85;;
70073;SDS011;57445;51.058;3.698;2022-07-21T09:37:08;13.82;;;7.03;;
70073;SDS011;57445;51.058;3.698;2022-07-21T09:39:46;12.90;;;6.90;;
70073;SDS011;57445;51.058;3.698;2022-07-21T09:42:15;16.00;;;6.35;;
70073;SDS011;57445;51.058;3.698;2022-07-21T09:44:44;13.18;;;6.38;;
70073;SDS011;57445;51.058;3.698;2022-07-21T09:47:13;14.68;;;6.32;;
70073;SDS011;57445;51.058;3.698;2022-07-21T09:49:41;12.05;;;5.57;;
70073;SDS011;57445;51.058;3.698;2022-07-21T09:52:26;10.63;;;5.72;;
70073;SDS011;57445;51.058;3.698;2022-07-21T09:54:55;9.85;;;5.63;;
70073;SDS011;57445;51.058;3.698;2022-07-21T09:57:23;10.25;;;5.25;;
70073;SDS011;57445;51.058;3.698;2022-07-21T09:59:51;10.68;;;5.25;;
70073;SDS011;57445;51.058;3.698;2022-07-21T10:02:22;12.13;;;5.30;;
70073;SDS011;57445;51.058;3.698;2022-07-21T10:04:57;9.35;;;4.50;;
70073;SDS011;57445;51.058;3.698;2022-07-21T10:07:27;11.20;;;4.60;;
70073;SDS011;57445;51.058;3.698;2022-07-21T10:09:56;10.38;;;4.93;;
70073;SDS011;57445;51.058;3.698;2022-07-21T10:12:24;11.63;;;5.45;;
70073;SDS011;57445;51.058;3.698;2022-07-21T10:14:53;12.27;;;5.32;;
70073;SDS011;57445;51.058;3.698;2022-07-21T10:17:22;9.18;;;4.80;;
70073;SDS011;57445;51.058;3.698;2022-07-21T10:19:57;11.98;;;4.93;;
70073;SDS011;57445;51.058;3.698;2022-07-21T10:22:36;12.50;;;5.38;;
70073;SDS011;57445;51.058;3.698;2022-07-21T10:25:15;10.00;;;5.30;;
70073;SDS011;57445;51.058;3.698;2022-07-21T10:30:43;11.85;;;4.88;;
70073;SDS011;57445;51.058;3.698;2022-07-21T10:33:11;10.63;;;4.50;;
70073;SDS011;57445;51.058;3.698;2022-07-21T10:35:40;11.80;;;4.93;;
70073;SDS011;57445;51.058;3.698;2022-07-21T10:38:12;9.38;;;4.43;;
70073;SDS011;57445;51.058;3.698;2022-07-21T10:40:53;9.05;;;4.18;;
70073;SDS011;57445;51.058;3.698;2022-07-21T10:43:36;14.88;;;5.05;;
70073;SDS011;57445;51.058;3.698;2022-07-21T10:49:03;10.68;;;4.38;;
70073;SDS011;57445;51.058;3.698;2022-07-21T10:51:32;12.10;;;4.20;;
70073;SDS011;57445;51.058;3.698;2022-07-21T11:02:54;9.80;;;3.90;;
70073;SDS011;57445;51.058;3.698;2022-07-21T11:05:23;11.18;;;4.20;;
70073;SDS011;57445;51.058;3.698;2022-07-21T11:08:13;9.25;;;3.85;;
70073;SDS011;57445;51.058;3.698;2022-07-21T11:10:44;13.65;;;3.88;;
70073;SDS011;57445;51.058;3.698;2022-07-21T11:13:13;7.47;;;3.95;;
70073;SDS011;57445;51.058;3.698;2022-07-21T11:15:48;9.77;;;3.67;;
70073;SDS011;57445;51.058;3.698;2022-07-21T11:18:22;10.55;;;3.88;;
70073;SDS011;57445;51.058;3.698;2022-07-21T11:21:08;14.27;;;4.40;;
70073;SDS011;57445;51.058;3.698;2022-07-21T11:23:37;14.90;;;4.63;;
70073;SDS011;57445;51.058;3.698;2022-07-21T11:26:08;9.43;;;4.00;;
70073;SDS011;57445;51.058;3.698;2022-07-21T11:28:36;13.13;;;4.30;;
70073;SDS011;57445;51.058;3.698;2022-07-21T11:31:08;11.40;;;4.70;;
70073;SDS011;57445;51.058;3.698;2022-07-21T11:33:37;14.82;;;4.45;;
70073;SDS011;57445;51.058;3.698;2022-07-21T11:36:04;11.48;;;4.43;;
70073;SDS011;57445;51.058;3.698;2022-07-21T11:38:32;15.80;;;4.97;;
70073;SDS011;57445;51.058;3.698;2022-07-21T11:41:14;15.85;;;5.03;;
70073;SDS011;57445;51.058;3.698;2022-07-21T11:43:43;11.73;;;4.85;;
70073;SDS011;57445;51.058;3.698;2022-07-21T11:46:11;15.07;;;5.30;;
70073;SDS011;57445;51.058;3.698;2022-07-21T11:48:39;15.48;;;4.32;;
70073;SDS011;57445;51.058;3.698;2022-07-21T11:51:06;12.68;;;4.57;;
70073;SDS011;57445;51.058;3.698;2022-07-21T11:53:33;14.98;;;4.40;;
70073;SDS011;57445;51.058;3.698;2022-07-21T11:56:00;14.27;;;4.45;;
70073;SDS011;57445;51.058;3.698;2022-07-21T11:58:39;11.50;;;4.63;;
70073;SDS011;57445;51.058;3.698;2022-07-21T12:01:07;12.85;;;4.90;;
70073;SDS011;57445;51.058;3.698;2022-07-21T12:03:35;17.50;;;4.65;;
70073;SDS011;57445;51.058;3.698;2022-07-21T12:06:13;16.92;;;5.28;;
70073;SDS011;57445;51.058;3.698;2022-07-21T12:08:41;14.15;;;4.78;;
70073;SDS011;57445;51.058;3.698;2022-07-21T12:11:09;17.75;;;4.97;;
70073;SDS011;57445;51.058;3.698;2022-07-21T12:13:57;17.48;;;5.55;;
70073;SDS011;57445;51.058;3.698;2022-07-21T12:16:26;13.48;;;5.38;;
70073;SDS011;57445;51.058;3.698;2022-07-21T12:19:08;14.90;;;5.20;;
70073;SDS011;57445;51.058;3.698;2022-07-21T12:21:42;15.57;;;4.95;;
70073;SDS011;57445;51.058;3.698;2022-07-21T12:24:10;14.77;;;4.70;;
70073;SDS011;57445;51.058;3.698;2022-07-21T12:26:39;12.20;;;4.68;;
70073;SDS011;57445;51.058;3.698;2022-07-21T12:29:07;13.70;;;5.32;;
70073;SDS011;57445;51.058;3.698;2022-07-21T12:31:35;16.52;;;4.90;;
70073;SDS011;57445;51.058;3.698;2022-07-21T12:34:10;15.15;;;4.60;;
70073;SDS011;57445;51.058;3.698;2022-07-21T12:36:40;14.25;;;4.68;;
70073;SDS011;57445;51.058;3.698;2022-07-21T12:39:17;10.20;;;4.22;;
70073;SDS011;57445;51.058;3.698;2022-07-21T12:42:04;13.27;;;4.65;;
70073;SDS011;57445;51.058;3.698;2022-07-21T12:44:34;14.85;;;4.72;;
70073;SDS011;57445;51.058;3.698;2022-07-21T12:47:15;14.45;;;4.50;;
70073;SDS011;57445;51.058;3.698;2022-07-21T12:49:56;14.63;;;4.70;;
70073;SDS011;57445;51.058;3.698;2022-07-21T12:52:24;15.48;;;4.90;;
70073;SDS011;57445;51.058;3.698;2022-07-21T12:54:51;13.10;;;5.10;;
70073;SDS011;57445;51.058;3.698;2022-07-21T12:57:19;15.35;;;5.22;;
70073;SDS011;57445;51.058;3.698;2022-07-21T12:59:47;11.85;;;4.88;;
70073;SDS011;57445;51.058;3.698;2022-07-21T13:02:14;13.38;;;4.63;;
70073;SDS011;57445;51.058;3.698;2022-07-21T13:04:41;14.63;;;4.53;;
70073;SDS011;57445;51.058;3.698;2022-07-21T13:07:08;15.02;;;4.65;;
70073;SDS011;57445;51.058;3.698;2022-07-21T13:09:35;11.93;;;3.85;;
70073;SDS011;57445;51.058;3.698;2022-07-21T13:12:02;12.80;;;4.75;;
70073;SDS011;57445;51.058;3.698;2022-07-21T13:14:30;11.95;;;3.92;;
70073;SDS011;57445;51.058;3.698;2022-07-21T13:16:59;11.88;;;4.10;;
70073;SDS011;57445;51.058;3.698;2022-07-21T13:19:27;13.23;;;4.28;;
70073;SDS011;57445;51.058;3.698;2022-07-21T13:21:54;10.68;;;3.83;;
70073;SDS011;57445;51.058;3.698;2022-07-21T13:24:21;13.75;;;4.70;;
70073;SDS011;57445;51.058;3.698;2022-07-21T13:26:48;9.57;;;3.88;;
70073;SDS011;57445;51.058;3.698;2022-07-21T13:29:14;12.88;;;4.20;;
70073;SDS011;57445;51.058;3.698;2022-07-21T13:31:44;13.18;;;4.30;;
70073;SDS011;57445;51.058;3.698;2022-07-21T13:34:13;12.27;;;4.07;;
70073;SDS011;57445;51.058;3.698;2022-07-21T13:36:40;11.93;;;3.80;;
70073;SDS011;57445;51.058;3.698;2022-07-21T13:39:07;7.35;;;3.70;;
70073;SDS011;57445;51.058;3.698;2022-07-21T13:41:34;11.80;;;4.15;;
70073;SDS011;57445;51.058;3.698;2022-07-21T13:44:02;7.22;;;3.60;;
70073;SDS011;57445;51.058;3.698;2022-07-21T13:46:29;10.05;;;3.55;;
70073;SDS011;57445;51.058;3.698;2022-07-21T13:48:57;12.38;;;4.25;;
70073;SDS011;57445;51.058;3.698;2022-07-21T13:51:25;7.50;;;3.30;;
70073;SDS011;57445;51.058;3.698;2022-07-21T13:53:53;11.20;;;3.80;;
70073;SDS011;57445;51.058;3.698;2022-07-21T13:56:20;11.48;;;3.70;;
70073;SDS011;57445;51.058;3.698;2022-07-21T13:58:47;11.18;;;3.80;;
70073;SDS011;57445;51.058;3.698;2022-07-21T14:01:14;8.68;;;3.90;;
70073;SDS011;57445;51.058;3.698;2022-07-21T14:03:42;13.23;;;4.15;;
70073;SDS011;57445;51.058;3.698;2022-07-21T14:06:10;10.82;;;4.00;;
70073;SDS011;57445;51.058;3.698;2022-07-21T14:08:40;10.57;;;4.15;;
70073;SDS011;57445;51.058;3.698;2022-07-21T14:11:08;14.18;;;4.20;;
70073;SDS011;57445;51.058;3.698;2022-07-21T14:13:36;10.18;;;3.65;;
70073;SDS011;57445;51.058;3.698;2022-07-21T14:16:03;12.63;;;3.88;;
70073;SDS011;57445;51.058;3.698;2022-07-21T14:18:30;9.77;;;3.80;;
70073;SDS011;57445;51.058;3.698;2022-07-21T14:20:58;13.45;;;4.20;;
70073;SDS011;57445;51.058;3.698;2022-07-21T14:23:25;11.43;;;3.65;;
70073;SDS011;57445;51.058;3.698;2022-07-21T14:25:53;14.73;;;4.00;;
70073;SDS011;57445;51.058;3.698;2022-07-21T14:28:20;16.00;;;4.10;;
70073;SDS011;57445;51.058;3.698;2022-07-21T14:30:47;11.93;;;4.30;;
70073;SDS011;57445;51.058;3.698;2022-07-21T14:33:14;15.25;;;3.97;;
70073;SDS011;57445;51.058;3.698;2022-07-21T14:35:41;10.90;;;4.00;;
70073;SDS011;57445;51.058;3.698;2022-07-21T14:38:08;12.45;;;4.03;;
70073;SDS011;57445;51.058;3.698;2022-07-21T14:40:35;13.45;;;4.07;;
70073;SDS011;57445;51.058;3.698;2022-07-21T14:43:04;12.20;;;3.70;;
70073;SDS011;57445;51.058;3.698;2022-07-21T14:45:31;14.20;;;4.55;;
70073;SDS011;57445;51.058;3.698;2022-07-21T14:47:58;13.40;;;4.65;;
70073;SDS011;57445;51.058;3.698;2022-07-21T14:50:26;13.88;;;4.28;;
70073;SDS011;57445;51.058;3.698;2022-07-21T14:52:54;10.32;;;3.97;;
70073;SDS011;57445;51.058;3.698;2022-07-21T14:55:21;11.68;;;4.65;;
70073;SDS011;57445;51.058;3.698;2022-07-21T14:57:50;13.90;;;3.83;;
70073;SDS011;57445;51.058;3.698;2022-07-21T15:00:18;15.32;;;3.95;;
70073;SDS011;57445;51.058;3.698;2022-07-21T15:02:46;12.57;;;3.60;;